createdAt,value
2023-11-28T00:02:05.246Z,98171.59
2023-11-28T00:04:35.316Z,98171.72
2023-11-28T00:07:04.878Z,98162.31
2023-11-28T00:09:32.847Z,98153.81
2023-11-28T00:12:00.892Z,98162.69
2023-11-28T00:14:30.975Z,98160.97
2023-11-28T00:17:00.570Z,98152.50
2023-11-28T00:19:29.402Z,98155.25
2023-11-28T00:21:57.856Z,98158.09
2023-11-28T00:24:27.259Z,98148.44
2023-11-28T00:26:55.372Z,98145.81
2023-11-28T00:29:27.061Z,98148.66
2023-11-28T00:31:55.049Z,98147.72
2023-11-28T00:34:25.584Z,98144.16
2023-11-28T00:36:54.913Z,98140.19
2023-11-28T00:39:24.146Z,98143.75
2023-11-28T00:41:53.877Z,98134.97
2023-11-28T00:44:21.829Z,98134.31
2023-11-28T00:46:50.992Z,98127.47
2023-11-28T00:49:19.689Z,98135.03
2023-11-28T00:51:49.133Z,98133.13
2023-11-28T00:54:17.744Z,98127.56
2023-11-28T00:56:46.249Z,98133.16
2023-11-28T00:59:14.185Z,98141.91
2023-11-28T01:01:42.283Z,98130.56
2023-11-28T01:04:10.246Z,98134.91
2023-11-28T01:06:38.510Z,98134.78
2023-11-28T01:09:09.489Z,98126.59
2023-11-28T01:11:37.864Z,98131.00
2023-11-28T01:14:08.863Z,98137.13
2023-11-28T01:16:37.566Z,98141.13
2023-11-28T01:19:05.423Z,98131.28
2023-11-28T01:21:33.513Z,98133.03
2023-11-28T01:24:03.053Z,98133.03
2023-11-28T01:26:32.593Z,98133.88
2023-11-28T01:29:00.448Z,98126.63
2023-11-28T01:31:29.346Z,98132.66
2023-11-28T01:34:00.458Z,98124.72
2023-11-28T01:36:28.520Z,98128.84
2023-11-28T01:38:58.929Z,98134.88
2023-11-28T01:41:32.554Z,98133.06
2023-11-28T01:44:05.589Z,98131.56
2023-11-28T01:46:35.360Z,98131.31
2023-11-28T01:49:04.254Z,98133.06
2023-11-28T01:51:32.800Z,98135.00
2023-11-28T01:54:04.149Z,98135.13
2023-11-28T01:56:38.407Z,98142.13
2023-11-28T01:59:08.288Z,98144.00
2023-11-28T02:01:38.126Z,98136.19
2023-11-28T02:04:10.978Z,98138.69
2023-11-28T02:06:41.522Z,98136.91
2023-11-28T02:09:10.496Z,98142.13
2023-11-28T02:11:40.568Z,98138.56
2023-11-28T02:14:08.609Z,98142.13
2023-11-28T02:16:36.863Z,98149.91
2023-11-28T02:19:05.922Z,98138.56
2023-11-28T02:21:34.225Z,98141.97
2023-11-28T02:24:06.201Z,98140.31
2023-11-28T02:26:35.583Z,98141.72
2023-11-28T02:29:03.426Z,98143.47
2023-11-28T02:31:32.959Z,98137.59
2023-11-28T02:34:01.275Z,98141.03
2023-11-28T02:36:31.990Z,98145.28
2023-11-28T02:39:01.461Z,98139.00
2023-11-28T02:41:30.328Z,98139.78
2023-11-28T02:44:00.453Z,98146.78
2023-11-28T02:46:29.181Z,98137.88
2023-11-28T02:48:57.148Z,98139.50
2023-11-28T02:51:25.017Z,98136.09
2023-11-28T02:53:53.194Z,98144.56
2023-11-28T02:56:21.156Z,98149.50
2023-11-28T02:58:51.539Z,98143.47
2023-11-28T03:01:23.729Z,98149.25
2023-11-28T03:03:52.316Z,98159.81
2023-11-28T03:06:20.722Z,98147.59
2023-11-28T03:08:49.655Z,98156.75
2023-11-28T03:11:18.153Z,98149.63
2023-11-28T03:13:47.548Z,98157.31
2023-11-28T03:16:15.621Z,98158.84
2023-11-28T03:18:44.940Z,98156.25
2023-11-28T03:21:12.924Z,98153.63
2023-11-28T03:23:41.628Z,98152.69
2023-11-28T03:26:09.620Z,98153.19
2023-11-28T03:28:37.897Z,98154.84
2023-11-28T03:31:09.507Z,98171.00
2023-11-28T03:33:37.451Z,98165.81
2023-11-28T03:36:16.563Z,98167.59
2023-11-28T03:38:49.281Z,98170.44
2023-11-28T03:41:18.794Z,98178.38
2023-11-28T03:43:46.915Z,98182.25
2023-11-28T03:46:16.920Z,98184.56
2023-11-28T03:48:45.329Z,98181.28
2023-11-28T03:51:14.620Z,98178.25
2023-11-28T03:53:42.659Z,98176.16
2023-11-28T03:56:11.533Z,98183.56
2023-11-28T03:58:40.946Z,98186.56
2023-11-28T04:01:08.865Z,98194.09
2023-11-28T04:03:36.921Z,98190.09
2023-11-28T04:06:05.827Z,98203.25
2023-11-28T04:08:35.614Z,98210.34
2023-11-28T04:11:05.984Z,98209.94
2023-11-28T04:13:34.182Z,98209.81
2023-11-28T04:16:02.168Z,98213.38
2023-11-28T04:18:32.873Z,98217.09
2023-11-28T04:21:01.123Z,98224.34
2023-11-28T04:23:29.302Z,98233.78
2023-11-28T04:25:58.672Z,98241.28
2023-11-28T04:28:29.929Z,98245.94
2023-11-28T04:30:59.752Z,98239.31
2023-11-28T04:33:32.490Z,98254.31
2023-11-28T04:36:01.237Z,98263.47
2023-11-28T04:38:30.072Z,98262.09
2023-11-28T04:40:59.682Z,98268.38
2023-11-28T04:43:27.554Z,98273.59
2023-11-28T04:45:55.574Z,98267.44
2023-11-28T04:48:23.995Z,98275.63
2023-11-28T04:50:51.972Z,98275.03
2023-11-28T04:53:19.891Z,98292.03
2023-11-28T04:55:49.011Z,98293.94
2023-11-28T04:58:18.460Z,98300.41
2023-11-28T05:00:47.115Z,98308.06
2023-11-28T05:03:16.153Z,98310.44
2023-11-28T05:05:44.554Z,98317.69
2023-11-28T05:08:18.418Z,98319.81
2023-11-28T05:10:49.716Z,98317.69
2023-11-28T05:13:18.981Z,98322.53
2023-11-28T05:15:46.909Z,98326.97
2023-11-28T05:18:14.921Z,98333.84
2023-11-28T05:20:43.623Z,98334.47
2023-11-28T05:23:11.460Z,98332.72
2023-11-28T05:25:41.285Z,98338.84
2023-11-28T05:28:09.848Z,98346.63
2023-11-28T05:30:39.541Z,98366.94
2023-11-28T05:33:08.204Z,98368.97
2023-11-28T05:35:36.121Z,98373.47
2023-11-28T05:38:05.360Z,98376.91
2023-11-28T05:40:33.438Z,98381.28
2023-11-28T05:43:02.940Z,98385.34
2023-11-28T05:45:31.552Z,98385.16
2023-11-28T05:48:01.409Z,98390.44
2023-11-28T05:50:29.696Z,98396.50
2023-11-28T05:52:59.127Z,98402.91
2023-11-28T05:55:30.530Z,98418.47
2023-11-28T05:57:58.829Z,98418.56
2023-11-28T06:00:28.460Z,98423.28
2023-11-28T06:02:56.861Z,98431.00
2023-11-28T06:05:26.663Z,98445.75
2023-11-28T06:07:55.820Z,98450.50
2023-11-28T06:10:23.724Z,98467.69
2023-11-28T06:12:51.845Z,98464.59
2023-11-28T06:15:21.828Z,98483.28
2023-11-28T06:17:50.210Z,98467.56
2023-11-28T06:20:18.817Z,98469.91
2023-11-28T06:22:50.424Z,98483.16
2023-11-28T06:25:18.262Z,98487.06
2023-11-28T06:27:46.351Z,98491.06
2023-11-28T06:30:17.342Z,98497.72
2023-11-28T06:32:50.541Z,98505.84
2023-11-28T06:35:18.618Z,98511.41
2023-11-28T06:37:49.101Z,98510.44
2023-11-28T06:40:22.517Z,98517.13
2023-11-28T06:42:58.507Z,98537.31
2023-11-28T06:45:27.765Z,98548.28
2023-11-28T06:47:55.889Z,98547.22
2023-11-28T06:50:27.172Z,98557.16
2023-11-28T06:52:55.122Z,98566.13
2023-11-28T06:55:24.701Z,98567.09
2023-11-28T06:57:52.872Z,98580.09
2023-11-28T07:00:21.289Z,98589.66
2023-11-28T07:02:49.403Z,98602.19
2023-11-28T07:05:18.044Z,98605.38
2023-11-28T07:07:47.033Z,98608.72
2023-11-28T07:10:16.337Z,98623.94
2023-11-28T07:12:45.811Z,98633.03
2023-11-28T07:15:14.288Z,98642.59
2023-11-28T07:17:45.183Z,98652.53
2023-11-28T07:20:13.650Z,98655.84
2023-11-28T07:22:41.718Z,98674.78
2023-11-28T07:25:10.531Z,98676.44
2023-11-28T07:27:38.470Z,98678.78
2023-11-28T07:30:09.493Z,98684.50
2023-11-28T07:32:37.901Z,98679.75
2023-11-28T07:35:07.008Z,98695.59
2023-11-28T07:37:35.066Z,98702.81
2023-11-28T07:40:05.230Z,98706.72
2023-11-28T07:42:34.280Z,98710.16
2023-11-28T07:45:03.660Z,98719.59
2023-11-28T07:47:37.450Z,98726.94
2023-11-28T07:50:06.598Z,98738.53
2023-11-28T07:52:36.729Z,98745.38
2023-11-28T07:55:05.118Z,98752.38
2023-11-28T07:57:33.285Z,98760.41
2023-11-28T08:00:01.366Z,98771.06
2023-11-28T08:02:29.524Z,98781.97
2023-11-28T08:05:01.432Z,98785.00
2023-11-28T08:07:29.434Z,98782.75
2023-11-28T08:09:57.498Z,98800.19
2023-11-28T08:12:26.937Z,98807.16
2023-11-28T08:14:56.304Z,98816.41
2023-11-28T08:17:26.335Z,98821.59
2023-11-28T08:19:54.481Z,98821.72
2023-11-28T08:22:23.744Z,98839.44
2023-11-28T08:24:52.170Z,98843.97
2023-11-28T08:27:20.291Z,98846.31
2023-11-28T08:29:50.622Z,98848.69
2023-11-28T08:32:19.274Z,98847.97
2023-11-28T08:34:47.427Z,98857.31
2023-11-28T08:37:18.943Z,98865.03
2023-11-28T08:39:49.331Z,98874.00
2023-11-28T08:42:17.712Z,98878.75
2023-11-28T08:44:48.356Z,98886.78
2023-11-28T08:47:16.996Z,98890.72
2023-11-28T08:49:46.989Z,98897.91
2023-11-28T08:52:15.100Z,98896.16
2023-11-28T08:54:44.642Z,98903.97
2023-11-28T08:57:16.525Z,98909.03
2023-11-28T08:59:44.884Z,98913.31
2023-11-28T09:02:13.521Z,98928.72
2023-11-28T09:04:41.713Z,98917.59
2023-11-28T09:07:09.737Z,98935.06
2023-11-28T09:09:41.737Z,98940.19
2023-11-28T09:12:09.802Z,98941.34
2023-11-28T09:14:47.369Z,98958.00
2023-11-28T09:17:22.939Z,98964.06
2023-11-28T09:19:52.096Z,98969.00
2023-11-28T09:22:20.130Z,98978.47
2023-11-28T09:24:47.968Z,98980.47
2023-11-28T09:27:15.977Z,98989.69
2023-11-28T09:29:45.281Z,98998.38
2023-11-28T09:32:14.423Z,99008.75
2023-11-28T09:34:44.284Z,99012.69
2023-11-28T09:37:12.409Z,99023.94
2023-11-28T09:39:40.802Z,99027.63
2023-11-28T09:42:13.136Z,99031.44
2023-11-28T09:44:44.090Z,99031.38
2023-11-28T09:47:13.852Z,99043.19
2023-11-28T09:49:43.357Z,99052.41
2023-11-28T09:52:12.122Z,99043.53
2023-11-28T09:54:40.610Z,99051.47
2023-11-28T09:57:12.554Z,99059.03
2023-11-28T09:59:46.058Z,99052.25
2023-11-28T10:02:19.225Z,99056.91
2023-11-28T10:04:47.545Z,99062.91
2023-11-28T10:07:17.566Z,99070.03
2023-11-28T10:09:48.686Z,99076.38
2023-11-28T10:12:18.331Z,99070.34
2023-11-28T10:14:46.690Z,99086.13
2023-11-28T10:17:14.741Z,99086.72
2023-11-28T10:19:47.026Z,99084.97
2023-11-28T10:22:16.115Z,99083.50
2023-11-28T10:24:44.222Z,99092.66
2023-11-28T10:27:14.660Z,99098.34
2023-11-28T10:29:42.556Z,99092.81
2023-11-28T10:32:11.279Z,99096.34
2023-11-28T10:34:39.306Z,99100.75
2023-11-28T10:37:12.887Z,99114.63
2023-11-28T10:39:41.409Z,99117.19
2023-11-28T10:42:12.196Z,99119.78
2023-11-28T10:44:41.253Z,99122.47
2023-11-28T10:47:09.331Z,99118.75
2023-11-28T10:49:39.958Z,99121.25
2023-11-28T10:52:08.934Z,99126.97
2023-11-28T10:54:42.042Z,99135.84
2023-11-28T10:57:19.553Z,99132.28
2023-11-28T10:59:54.014Z,99134.53
2023-11-28T11:02:22.762Z,99136.19
2023-11-28T11:04:50.836Z,99142.09
2023-11-28T11:07:20.099Z,99135.94
2023-11-28T11:09:51.103Z,99147.22
2023-11-28T11:12:22.807Z,99145.81
2023-11-28T11:14:59.569Z,99147.81
2023-11-28T11:17:42.930Z,99147.28
2023-11-28T11:20:12.905Z,99153.28
2023-11-28T11:22:47.295Z,99158.09
2023-11-28T11:25:18.423Z,99158.75
2023-11-28T11:27:48.768Z,99156.25
2023-11-28T11:30:17.616Z,99163.97
2023-11-28T11:32:46.169Z,99163.13
2023-11-28T11:35:14.901Z,99161.47
2023-11-28T11:37:44.245Z,99163.50
2023-11-28T11:40:21.804Z,99167.78
2023-11-28T11:42:52.946Z,99176.97
2023-11-28T11:45:21.814Z,99180.81
2023-11-28T11:47:50.141Z,99185.59
2023-11-28T11:50:28.533Z,99195.56
2023-11-28T11:53:04.065Z,99198.16
2023-11-28T11:55:33.387Z,99202.44
2023-11-28T11:58:05.701Z,99204.00
2023-11-28T12:00:34.640Z,99213.31
2023-11-28T12:03:02.795Z,99219.88
2023-11-28T12:05:31.531Z,99213.00
2023-11-28T12:08:00.300Z,99225.88
2023-11-28T12:10:28.260Z,99220.88
2023-11-28T12:12:57.875Z,99228.84
2023-11-28T12:15:25.822Z,99235.28
2023-11-28T12:18:09.480Z,99242.69
2023-11-28T12:20:41.924Z,99244.84
2023-11-28T12:23:10.662Z,99256.75
2023-11-28T12:25:39.356Z,99264.09
2023-11-28T12:28:09.310Z,99283.75
2023-11-28T12:30:39.903Z,99284.06
2023-11-28T12:33:08.255Z,99286.28
2023-11-28T12:35:38.463Z,99297.72
2023-11-28T12:38:15.246Z,99297.03
2023-11-28T12:40:45.976Z,99301.03
2023-11-28T12:43:22.762Z,99306.94
2023-11-28T12:45:58.427Z,99320.91
2023-11-28T12:48:27.989Z,99324.25
2023-11-28T12:50:58.592Z,99325.63
2023-11-28T12:53:27.078Z,99328.13
2023-11-28T12:55:55.221Z,99337.28
2023-11-28T12:58:26.224Z,99349.25
2023-11-28T13:00:55.897Z,99358.63
2023-11-28T13:03:24.412Z,99351.84
2023-11-28T13:05:55.038Z,99355.50
2023-11-28T13:08:22.948Z,99363.44
2023-11-28T13:10:51.078Z,99362.09
2023-11-28T13:13:19.650Z,99369.13
2023-11-28T13:15:48.957Z,99380.41
2023-11-28T13:18:17.058Z,99379.03
2023-11-28T13:20:45.136Z,99376.63
2023-11-28T13:23:13.778Z,99377.38
2023-11-28T13:25:42.155Z,99378.31
2023-11-28T13:28:10.127Z,99378.50
2023-11-28T13:30:38.825Z,99386.84
2023-11-28T13:33:10.449Z,99385.28
2023-11-28T13:35:40.189Z,99399.78
2023-11-28T13:38:08.400Z,99409.34
2023-11-28T13:40:36.284Z,99408.94
2023-11-28T13:43:05.845Z,99411.63
2023-11-28T13:45:36.556Z,99416.00
2023-11-28T13:48:04.703Z,99425.59
2023-11-28T13:50:35.929Z,99426.00
2023-11-28T13:53:03.998Z,99426.81
2023-11-28T13:55:31.996Z,99438.28
2023-11-28T13:58:02.422Z,99440.97
2023-11-28T14:00:32.614Z,99439.31
2023-11-28T14:03:00.746Z,99446.09
2023-11-28T14:05:29.114Z,99450.47
2023-11-28T14:07:58.934Z,99458.03
2023-11-28T14:10:28.270Z,99462.97
2023-11-28T14:12:58.405Z,99472.75
2023-11-28T14:15:27.827Z,99472.31
2023-11-28T14:17:55.947Z,99478.78
2023-11-28T14:20:24.026Z,99488.09
2023-11-28T14:22:52.048Z,99488.88
2023-11-28T14:25:22.240Z,99501.56
2023-11-28T14:27:51.181Z,99500.50
2023-11-28T14:30:19.146Z,99504.69
2023-11-28T14:32:49.124Z,99498.56
2023-11-28T14:35:19.567Z,99503.50
2023-11-28T14:37:48.756Z,99507.34
2023-11-28T14:40:16.985Z,99514.56
2023-11-28T14:42:47.387Z,99525.91
2023-11-28T14:45:15.387Z,99532.88
2023-11-28T14:47:45.524Z,99540.84
2023-11-28T14:50:13.655Z,99536.75
2023-11-28T14:52:41.558Z,99561.84
2023-11-28T14:55:12.102Z,99567.78
2023-11-28T14:57:43.427Z,99562.31
2023-11-28T15:02:45.788Z,99581.34
2023-11-28T15:05:14.643Z,99578.38
2023-11-28T15:07:44.329Z,99579.69
2023-11-28T15:10:14.617Z,99592.50
2023-11-28T15:12:43.010Z,99589.16
2023-11-28T15:15:12.710Z,99595.50
2023-11-28T15:17:40.741Z,99602.91
2023-11-28T15:20:10.145Z,99602.25
2023-11-28T15:22:43.117Z,99608.97
2023-11-28T15:25:11.513Z,99607.09
2023-11-28T15:27:42.307Z,99611.34
2023-11-28T15:30:12.745Z,99621.31
2023-11-28T15:32:41.313Z,99625.28
2023-11-28T15:35:13.512Z,99627.09
2023-11-28T15:37:42.435Z,99630.78
2023-11-28T15:40:12.010Z,99636.06
2023-11-28T15:42:39.869Z,99634.22
2023-11-28T15:45:10.668Z,99638.75
2023-11-28T15:47:40.324Z,99644.72
2023-11-28T15:50:09.364Z,99647.31
2023-11-28T15:52:37.245Z,99649.56
2023-11-28T15:55:05.821Z,99658.00
2023-11-28T15:57:34.827Z,99654.28
2023-11-28T16:00:06.280Z,99656.34
2023-11-28T16:02:34.710Z,99662.84
2023-11-28T16:05:04.899Z,99665.81
2023-11-28T16:07:34.060Z,99662.19
2023-11-28T16:10:02.837Z,99661.16
2023-11-28T16:12:30.737Z,99673.94
2023-11-28T16:15:03.251Z,99680.19
2023-11-28T16:17:31.296Z,99676.38
2023-11-28T16:19:59.353Z,99678.22
2023-11-28T16:22:28.526Z,99682.31
2023-11-28T16:24:59.039Z,99681.84
2023-11-28T16:27:26.976Z,99688.63
2023-11-28T16:29:55.419Z,99690.59
2023-11-28T16:32:23.495Z,99700.50
2023-11-28T16:34:52.114Z,99702.56
2023-11-28T16:37:20.348Z,99705.50
2023-11-28T16:39:49.623Z,99704.09
2023-11-28T16:42:17.480Z,99709.19
2023-11-28T16:44:45.925Z,99706.47
2023-11-28T16:47:15.767Z,99716.38
2023-11-28T16:49:43.872Z,99717.31
2023-11-28T16:52:11.716Z,99719.44
2023-11-28T16:54:39.602Z,99720.72
2023-11-28T16:57:09.041Z,99725.75
2023-11-28T16:59:37.584Z,99732.91
2023-11-28T17:02:05.984Z,99724.31
2023-11-28T17:04:34.953Z,99735.56
2023-11-28T17:07:10.712Z,99740.19
2023-11-28T17:09:38.757Z,99732.47
2023-11-28T17:12:09.008Z,99734.19
2023-11-28T17:14:37.179Z,99733.19
2023-11-28T17:17:05.392Z,99724.63
2023-11-28T17:19:36.011Z,99732.84
2023-11-28T17:22:04.032Z,99736.72
2023-11-28T17:24:32.000Z,99741.47
2023-11-28T17:26:59.922Z,99740.47
2023-11-28T17:29:30.409Z,99739.75
2023-11-28T17:31:59.008Z,99740.88
2023-11-28T17:34:27.150Z,99735.19
2023-11-28T17:36:55.207Z,99744.31
2023-11-28T17:39:24.714Z,99739.81
2023-11-28T17:41:53.516Z,99744.59
2023-11-28T17:44:21.505Z,99755.41
2023-11-28T17:46:50.855Z,99749.13
2023-11-28T17:49:21.148Z,99753.16
2023-11-28T17:51:49.924Z,99751.66
2023-11-28T17:54:18.012Z,99758.97
2023-11-28T17:56:46.143Z,99755.69
2023-11-28T17:59:15.640Z,99759.59
2023-11-28T18:01:46.353Z,99759.88
2023-11-28T18:04:15.855Z,99748.47
2023-11-28T18:06:51.797Z,99752.00
2023-11-28T18:09:19.837Z,99752.06
2023-11-28T18:11:48.223Z,99750.72
2023-11-28T18:14:18.762Z,99762.72
2023-11-28T18:16:46.871Z,99758.97
2023-11-28T18:19:16.368Z,99771.38
2023-11-28T18:21:45.987Z,99777.47
2023-11-28T18:24:14.528Z,99779.63
2023-11-28T18:26:45.034Z,99777.97
2023-11-28T18:29:14.361Z,99782.81
2023-11-28T18:31:43.869Z,99781.91
2023-11-28T18:34:12.228Z,99785.59
2023-11-28T18:36:41.946Z,99786.41
2023-11-28T18:39:11.293Z,99789.03
2023-11-28T18:41:39.749Z,99787.19
2023-11-28T18:44:11.321Z,99782.56
2023-11-28T18:46:41.735Z,99779.91
2023-11-28T18:49:10.960Z,99781.56
2023-11-28T18:51:42.422Z,99776.38
2023-11-28T18:54:12.410Z,99782.22
2023-11-28T18:56:40.605Z,99787.28
2023-11-28T18:59:09.586Z,99793.97
2023-11-28T19:01:42.157Z,99792.97
2023-11-28T19:04:10.812Z,99797.06
2023-11-28T19:06:42.301Z,99791.38
2023-11-28T19:09:12.877Z,99791.69
2023-11-28T19:11:40.860Z,99787.63
2023-11-28T19:14:09.461Z,99791.88
2023-11-28T19:16:39.549Z,99787.53
2023-11-28T19:19:10.092Z,99785.84
2023-11-28T19:21:42.787Z,99798.75
2023-11-28T19:24:13.380Z,99795.22
2023-11-28T19:26:42.364Z,99800.41
2023-11-28T19:29:10.361Z,99809.06
2023-11-28T19:31:40.697Z,99812.47
2023-11-28T19:34:09.739Z,99815.00
2023-11-28T19:36:38.102Z,99821.78
2023-11-28T19:39:06.341Z,99818.34
2023-11-28T19:41:36.001Z,99820.94
2023-11-28T19:44:09.524Z,99819.25
2023-11-28T19:46:43.064Z,99822.31
2023-11-28T19:49:11.144Z,99823.94
2023-11-28T19:51:39.292Z,99829.81
2023-11-28T19:54:07.473Z,99832.53
2023-11-28T19:56:37.340Z,99828.72
2023-11-28T19:59:05.574Z,99822.88
2023-11-28T20:01:33.569Z,99825.13
2023-11-28T20:04:02.906Z,99825.31
2023-11-28T20:06:34.317Z,99826.97
2023-11-28T20:09:04.832Z,99824.53
2023-11-28T20:11:33.422Z,99822.53
2023-11-28T20:14:05.897Z,99833.44
2023-11-28T20:16:41.555Z,99830.09
2023-11-28T20:19:10.271Z,99832.84
2023-11-28T20:21:38.314Z,99832.84
2023-11-28T20:24:06.984Z,99836.28
2023-11-28T20:26:35.004Z,99829.16
2023-11-28T20:29:10.447Z,99829.25
2023-11-28T20:31:39.504Z,99842.16
2023-11-28T20:34:11.413Z,99836.78
2023-11-28T20:36:41.149Z,99833.66
2023-11-28T20:39:10.805Z,99825.88
2023-11-28T20:41:38.840Z,99824.88
2023-11-28T20:44:09.547Z,99827.13
2023-11-28T20:46:38.556Z,99826.88
2023-11-28T20:49:06.645Z,99830.06
2023-11-28T20:51:34.813Z,99836.00
2023-11-28T20:54:02.673Z,99827.41
2023-11-28T20:56:30.680Z,99823.72
2023-11-28T20:58:59.038Z,99832.00
2023-11-28T21:01:32.388Z,99834.84
2023-11-28T21:04:01.831Z,99830.75
2023-11-28T21:06:30.755Z,99826.06
2023-11-28T21:08:58.900Z,99832.59
2023-11-28T21:11:27.993Z,99826.91
2023-11-28T21:13:57.272Z,99826.53
2023-11-28T21:16:27.396Z,99832.66
2023-11-28T21:19:00.491Z,99825.88
2023-11-28T21:21:32.688Z,99824.72
2023-11-28T21:24:02.981Z,99818.75
2023-11-28T21:26:31.669Z,99824.94
2023-11-28T21:29:01.967Z,99818.84
2023-11-28T21:31:35.120Z,99819.03
2023-11-28T21:34:05.782Z,99821.63
2023-11-28T21:36:35.866Z,99832.59
2023-11-28T21:39:04.973Z,99825.81
2023-11-28T21:41:35.975Z,99821.53
2023-11-28T21:44:05.074Z,99815.91
2023-11-28T21:46:33.012Z,99815.66
2023-11-28T21:49:01.724Z,99809.38
2023-11-28T21:51:31.756Z,99810.72
2023-11-28T21:53:59.616Z,99813.78
2023-11-28T21:56:30.391Z,99808.69
2023-11-28T21:58:59.741Z,99804.41
2023-11-28T22:01:28.354Z,99799.78
2023-11-28T22:03:56.547Z,99801.22
2023-11-28T22:06:25.198Z,99800.56
2023-11-28T22:09:02.493Z,99788.09
2023-11-28T22:11:34.205Z,99788.78
2023-11-28T22:14:02.372Z,99794.03
2023-11-28T22:16:30.634Z,99793.88
2023-11-28T22:19:01.658Z,99796.47
2023-11-28T22:21:32.560Z,99798.56
2023-11-28T22:24:01.901Z,99810.94
2023-11-28T22:26:32.298Z,99806.22
2023-11-28T22:29:00.516Z,99811.28
2023-11-28T22:31:28.544Z,99818.31
2023-11-28T22:33:56.562Z,99817.13
2023-11-28T22:36:29.062Z,99813.91
2023-11-28T22:38:57.043Z,99825.50
2023-11-28T22:41:26.716Z,99825.28
2023-11-28T22:43:56.220Z,99820.81
2023-11-28T22:46:28.028Z,99828.41
2023-11-28T22:48:56.330Z,99829.78
2023-11-28T22:51:24.512Z,99830.88
2023-11-28T22:53:53.569Z,99837.88
2023-11-28T22:56:21.757Z,99836.91
2023-11-28T22:58:51.885Z,99834.06
2023-11-28T23:01:20.806Z,99834.19
2023-11-28T23:03:49.231Z,99829.66
2023-11-28T23:06:17.407Z,99823.06
2023-11-28T23:08:45.407Z,99821.91
2023-11-28T23:11:15.951Z,99820.31
2023-11-28T23:13:44.725Z,99823.44
2023-11-28T23:16:15.223Z,99819.00
2023-11-28T23:18:43.499Z,99814.75
2023-11-28T23:21:11.837Z,99797.25
2023-11-28T23:23:42.254Z,99801.00
2023-11-28T23:26:10.136Z,99799.06
2023-11-28T23:28:38.054Z,99787.97
2023-11-28T23:31:06.181Z,99779.38
2023-11-28T23:33:35.598Z,99779.94
2023-11-28T23:36:03.448Z,99788.03
2023-11-28T23:38:31.485Z,99784.09
2023-11-28T23:40:59.733Z,99780.06
2023-11-28T23:43:27.755Z,99788.91
2023-11-28T23:45:55.725Z,99781.06
2023-11-28T23:48:24.259Z,99779.56
2023-11-28T23:50:53.617Z,99776.00
2023-11-28T23:53:21.570Z,99775.00
2023-11-28T23:55:50.219Z,99776.72
2023-11-28T23:58:18.157Z,99782.72
